Flight Track Log - Related Links

Times and Time Zones

All times are in EDT time to prevent confusion due to time zone crossing. See the AVN11 flight status page for this flight to view local times or setup timezone preferences in your user account.


Time Position Orientation Groundspeed Altitude Reporting Facility
EDT Latitude Longitude Course Direction KTS MPH feet Rate Location/Type
Wed 05:21:48 AM -33.9255 151.1707 347° North 164 189 700  Level FlightAware ADS-B
Wed 05:22:18 AM -33.9025 151.1622 329° Northwest 171 197 1,700 1,857 Climbing FlightAware ADS-B
Wed 05:22:30 AM -33.8948 151.1547 317° Northwest 182 209 2,000 1,364 Climbing FlightAware ADS-B (LPVM)
Wed 05:22:40 AM -33.8916 151.1507 314° West 197 227 2,200 2,000 Climbing FlightAware ADS-B (LPVM)
Wed 05:23:00 AM -33.8757 151.1308 314° West 208 239 3,000 2,750 Climbing FlightAware ADS-B
Wed 05:23:04 AM -33.8722 151.1265 313° West 206 237 3,300 3,200 Climbing FlightAware ADS-B (YPLB)
Wed 05:23:15 AM -33.8651 151.1176 313° West 211 243 3,800 2,769 Climbing FlightAware ADS-B (YPLB)
Wed 05:23:30 AM -33.8551 151.1050 312° West 212 244 4,500 2,182 Climbing FlightAware ADS-B
Wed 05:23:48 AM -33.8431 151.0896 312° West 232 267 5,000 1,826 Climbing FlightAware ADS-B (DRW / YPDN)
Wed 05:23:53 AM -33.8391 151.0842 311° West 235 270 5,200 2,182 Climbing FlightAware ADS-B (DRW / YPDN)
Wed 05:23:59 AM -33.8347 151.0782 310° West 232 267 5,400 2,727 Climbing FlightAware ADS-B
Wed 05:24:04 AM -33.8300 151.0720 312° West 239 275 5,700 3,200 Climbing FlightAware ADS-B (YPLB)
Wed 05:24:14 AM -33.8220 151.0616 312° West 242 278 6,200 2,571 Climbing FlightAware ADS-B (YPLB)
Wed 05:24:25 AM -33.8152 151.0520 306° West 242 278 6,600 2,211 Climbing FlightAware ADS-B
Wed 05:24:33 AM -33.8113 151.0428 294° West 236 272 6,900 2,308 Climbing FlightAware ADS-B (DRW / YPDN)
Wed 05:24:38 AM -33.8100 151.0375 285° West 230 265 7,100 2,000 Climbing FlightAware ADS-B (DRW / YPDN)
Wed 05:24:42 AM -33.8093 151.0312 275° West 228 262 7,200 1,200 Climbing FlightAware ADS-B
Wed 05:24:48 AM -33.8098 151.0238 263° West 230 265 7,300 1,091 Climbing FlightAware ADS-B (DRW / YPDN)
Wed 05:24:53 AM -33.8109 151.0181 250° West 232 267 7,400 1,385 Climbing FlightAware ADS-B
Wed 05:25:01 AM -33.8149 151.0090 235° Southwest 234 269 7,600 2,143 Climbing FlightAware ADS-B (KCLL)
Wed 05:25:07 AM -33.8185 151.0042 222° Southwest 233 268 7,900 2,727 Climbing FlightAware ADS-B (DRW / YPDN)
Wed 05:25:12 AM -33.8248 150.9989 212° Southwest 234 269 8,100 2,182 Climbing FlightAware ADS-B (DRW / YPDN)
Wed 05:25:18 AM -33.8277 150.9972 199° South 235 270 8,300 2,727 Climbing FlightAware ADS-B (DRW / YPDN)
Wed 05:25:23 AM -33.8354 150.9949 192° South 237 273 8,600 2,667 Climbing FlightAware ADS-B (DRW / YPDN)
Wed 05:25:36 AM -33.8501 150.9928 183° South 242 278 9,100 2,667 Climbing FlightAware ADS-B
Wed 05:25:41 AM -33.8554 150.9931 178° South 245 282 9,400 2,667 Climbing FlightAware ADS-B (LPVM)
Wed 05:25:45 AM -33.8597 150.9938 172° South 248 285 9,500 2,500 Climbing FlightAware ADS-B
Wed 05:25:53 AM -33.8671 150.9960 162° South 254 292 9,900 2,667 Climbing FlightAware ADS-B (DRW / YPDN)
Wed 05:26:03 AM -33.8797 151.0034 149° Southeast 265 305 10,300 2,769 Climbing FlightAware ADS-B (DRW / YPDN)
Wed 05:26:06 AM -33.8833 151.0065 143° Southeast 264 304 10,500 1,385 Climbing FlightAware ADS-B
Wed 05:26:16 AM -33.8895 151.0134 132° Southeast 292 336 10,600 706 Climbing FlightAware ADS-B
Wed 05:26:23 AM -33.8952 151.0223 120° Southeast 311 358 10,700 1,000 Climbing FlightAware ADS-B (DRW / YPDN)
Wed 05:26:28 AM -33.8999 151.0339 110° East 326 375 10,800 1,000 Climbing FlightAware ADS-B (DRW / YPDN)
Wed 05:26:35 AM -33.9023 151.0445 99° East 344 396 10,900 1,200 Climbing FlightAware ADS-B
Wed 05:26:38 AM -33.9030 151.0519 104° East 337 388 11,000 1,714 Climbing FlightAware ADS-B (LPVM)
Wed 05:26:42 AM -33.9031 151.0539 91° East 356 410 11,100 800 Climbing FlightAware ADS-B (DRW / YPDN)
Wed 05:26:53 AM -33.9029 151.0850 90° East 372 428 11,200 1,610 Climbing FlightAware ADS-B
Wed 05:27:23 AM -33.9030 151.1482 90° East 388 447 12,200 2,100 Climbing FlightAware ADS-B (DRW / YPDN)
Wed 05:27:53 AM -33.9033 151.2139 90° East 400 460 13,300 2,377 Climbing FlightAware ADS-B (DRW / YPDN)
Wed 05:28:16 AM -33.9038 151.2690 90° East 405 466 14,300 2,377 Climbing FlightAware ADS-B (YPLB)
Wed 05:28:46 AM -33.9042 151.3325 90° East 407 468 15,400 2,226 Climbing FlightAware ADS-B
Wed 05:29:18 AM -33.9045 151.4072 90° East 421 484 16,600 2,226 Climbing FlightAware ADS-B (DRW / YPDN)
Wed 05:29:48 AM -33.9045 151.4758 90° East 428 493 17,700 2,100 Climbing FlightAware ADS-B (DRW / YPDN)
Wed 05:30:18 AM -33.9049 151.5501 90° East 436 502 18,700 1,900 Climbing FlightAware ADS-B (DRW / YPDN)
Wed 05:30:48 AM -33.9052 151.6234 90° East 443 510 19,600 1,810 Climbing FlightAware ADS-B (DRW / YPDN)
Wed 05:31:21 AM -33.9056 151.7064 90° East 452 520 20,600 1,810 Climbing FlightAware ADS-B (LPVM)
Wed 05:31:51 AM -33.9059 151.7839 90° East 459 528 21,500 1,814 Climbing FlightAware ADS-B (LPVM)
Wed 05:32:04 AM -33.9053 151.8198 87° East 463 533 21,900 1,750 Climbing FlightAware ADS-B (YPLB)
Wed 05:32:15 AM -33.9016 151.8428 75° East 472 543 22,200 1,750 Climbing FlightAware ADS-B (KCLL)
Wed 05:32:28 AM -33.8916 151.8736 63° Northeast 479 551 22,600 1,826 Climbing FlightAware ADS-B (DRW / YPDN)
Wed 05:32:38 AM -33.8790 151.8978 55° Northeast 482 555 22,900 1,778 Climbing FlightAware ADS-B (DRW / YPDN)
Wed 05:32:55 AM -33.8530 151.9347 49° Northeast 485 558 23,400 1,565 Climbing FlightAware ADS-B (YPLB)
Wed 05:33:01 AM -33.8459 151.9448 64° Northeast 478 550 23,500 1,385 Climbing FlightAware ADS-B (LPVM)
Wed 05:33:08 AM -33.8355 151.9595 50° Northeast 488 562 23,700 1,610 Climbing FlightAware ADS-B (DRW / YPDN)
Wed 05:33:42 AM -33.7850 152.0306 49° Northeast 495 570 24,600 1,469 Climbing FlightAware ADS-B (DRW / YPDN)
Wed 05:33:57 AM -33.7611 152.0633 48° Northeast 497 572 24,900 1,385 Climbing FlightAware ADS-B (YPLB)
Wed 05:34:08 AM -33.7454 152.0847 49° Northeast 499 574 25,200 1,500 Climbing FlightAware ADS-B (LPVM)
Wed 05:34:17 AM -33.7297 152.1061 48° Northeast 498 573 25,400 1,286 Climbing FlightAware ADS-B (YPLB)
Wed 05:34:22 AM -33.7242 152.1136 49° Northeast 500 575 25,500 1,500 Climbing FlightAware ADS-B (DRW / YPDN)
Wed 05:34:25 AM -33.7172 152.1232 48° Northeast 501 577 25,600 1,200 Climbing FlightAware ADS-B (YPLB)
Wed 05:34:32 AM -33.7124 152.1297 49° Northeast 502 578 25,700 1,091 Climbing FlightAware ADS-B (DRW / YPDN)
Wed 05:34:47 AM -33.6850 152.1671 48° Northeast 506 582 26,000 1,250 Climbing FlightAware ADS-B (YPLB)
Wed 05:34:56 AM -33.6700 152.1877 48° Northeast 508 585 26,200 1,429 Climbing FlightAware ADS-B (YPLB)
Wed 05:35:08 AM -33.6515 152.2130 48° Northeast 510 587 26,500 1,435 Climbing FlightAware ADS-B (YPLB)
Wed 05:35:42 AM -33.6092 152.2710 49° Northeast 516 594 27,300 1,467 Climbing FlightAware ADS-B (DRW / YPDN)
Wed 05:35:53 AM -33.5833 152.3065 49° Northeast 519 597 27,600 960 Climbing FlightAware ADS-B (DRW / YPDN)
Wed 05:36:07 AM -33.5590 152.3398 48° Northeast 518 596 27,700 955 Climbing FlightAware ADS-B (YPLB)
Wed 05:36:37 AM -33.5331 152.3752 49° Northeast 523 602 28,300 1,161 Climbing FlightAware ADS-B (DRW / YPDN)
Wed 05:37:09 AM -33.4605 152.4741 48° Northeast 526 605 28,900 1,080 Climbing FlightAware ADS-B (YPLB)
Wed 05:37:27 AM -33.4321 152.5129 48° Northeast 526 605 29,200 1,241 Climbing FlightAware ADS-B (YPLB)
Wed 05:37:38 AM -33.4134 152.5382 48° Northeast 526 605 29,500 1,500 Climbing FlightAware ADS-B (YPLB)
Wed 05:37:43 AM -33.4128 152.5391 49° Northeast 524 603 29,600 1,714 Climbing FlightAware ADS-B (DRW / YPDN)
Wed 05:37:59 AM -33.3794 152.5842 48° Northeast 522 601 30,100 1,696 Climbing FlightAware ADS-B (YPLB)
Wed 05:38:29 AM -33.3316 152.6490 48° Northeast 521 600 30,900 1,300 Climbing FlightAware ADS-B (YPLB)
Wed 05:38:59 AM -33.2831 152.7144 48° Northeast 524 603 31,400 1,100 Climbing FlightAware ADS-B (YPLB)
Wed 05:39:29 AM -33.2395 152.7737 48° Northeast 523 602 32,000 1,247 Climbing FlightAware ADS-B (YPLB)
Wed 05:40:16 AM -33.1628 152.8768 48° Northeast 519 597 33,000 1,319 Climbing FlightAware ADS-B (DRW / YPDN)
Wed 05:41:00 AM -33.0904 152.9736 48° Northeast 512 589 34,000 1,200 Climbing FlightAware ADS-B (YPLB)
Wed 05:41:36 AM -33.0349 153.0476 48° Northeast 513 590 34,600 900 Climbing Aus ATC (RADAR)
Wed 05:41:40 AM -33.0265 153.0593 48° Northeast 513 590 34,600 667 Level FlightAware ADS-B (YPLB)
Wed 05:42:12 AM -32.9788 153.1240 48° Northeast 512 589 35,000 471 Climbing FlightAware ADS-B (YPLB)
Wed 05:42:31 AM -32.9492 153.1640 48° Northeast 513 590 35,000  Level FlightAware ADS-B (YPLB)
Wed 05:43:01 AM -32.9004 153.2292 48° Northeast 514 592 35,000  Level FlightAware ADS-B (YPLB)
Wed 05:43:31 AM -32.8596 153.2836 48° Northeast 514 592 35,000  Level FlightAware ADS-B (KCLL)
Wed 05:44:03 AM -32.8036 153.3580 48° Northeast 514 592 35,000  Level FlightAware ADS-B (YPLB)
Wed 05:44:37 AM -32.7517 153.4268 48° Northeast 513 590 35,000  Level FlightAware ADS-B (KCLL)
Wed 05:45:13 AM -32.6920 153.5057 48° Northeast 513 590 35,000  Level FlightAware ADS-B (YPLB)
Wed 05:45:43 AM -32.6438 153.5691 48° Northeast 513 590 35,000  Level FlightAware ADS-B (YPLB)
Wed 05:46:14 AM -32.5961 153.6321 48° Northeast 513 590 35,000  Level FlightAware ADS-B (YPLB)
Wed 05:47:03 AM -32.5165 153.7367 48° Northeast 514 592 35,000  Level FlightAware ADS-B (YPLB)
Wed 05:47:38 AM -32.4642 153.8055 48° Northeast 514 592 35,000  Level FlightAware ADS-B (YPLB)
Wed 05:48:13 AM -32.4054 153.8826 48° Northeast 511 588 35,000 82 Level FlightAware ADS-B (YPLB)
Wed 05:48:51 AM -32.3469 153.9583 48° Northeast 511 588 35,100  Climbing Aus ATC (RADAR)
Wed 05:49:04 AM -32.3260 153.9864 47° Northeast 509 586 35,000 -115 Descending FlightAware ADS-B (YPLB)
Wed 05:49:43 AM -32.2642 154.0667 47° Northeast 506 582 35,000  Level FlightAware ADS-B (YPLB)
Wed 05:50:14 AM -32.2145 154.1315 48° Northeast 507 583 35,000  Level FlightAware ADS-B (YPLB)
Wed 05:50:52 AM -32.1552 154.2085 47° Northeast 507 583 35,000  Level FlightAware ADS-B (YPLB)
Wed 05:51:34 AM -32.0893 154.2941 47° Northeast 508 585 35,000  Level FlightAware ADS-B (YPLB)
Wed 05:52:14 AM -32.0257 154.3767 47° Northeast 508 585 35,000  Level FlightAware ADS-B (YPLB)
Wed 05:52:54 AM -31.9624 154.4581 47° Northeast 510 587 35,000  Level FlightAware ADS-B (YPLB)
Wed 05:53:24 AM -31.9138 154.5207 47° Northeast 511 588 35,000  Level FlightAware ADS-B (YPLB)
Wed 05:53:55 AM -31.8667 154.5813 47° Northeast 512 589 35,000 194 Level FlightAware ADS-B (YPLB)
Wed 05:54:26 AM -31.8175 154.6438 47° Northeast 513 590 35,200  Climbing Aus ATC (RADAR)
Wed 05:54:34 AM -31.8026 154.6632 47° Northeast 514 592 35,000 -308 Descending FlightAware ADS-B (YPLB)
Wed 05:55:05 AM -31.7510 154.7290 47° Northeast 517 595 35,000 63 Level FlightAware ADS-B (YPLB)
Wed 05:56:10 AM -31.6482 154.8605 47° Northeast 517 595 35,100  Climbing Aus ATC (RADAR)
Wed 05:56:23 AM -31.6261 154.8890 47° Northeast 515 593 35,000 -136 Descending FlightAware ADS-B (YPLB)
Wed 05:56:54 AM -31.5759 154.9529 47° Northeast 515 593 35,000  Level FlightAware ADS-B (YPLB)
Wed 05:57:25 AM -31.5243 155.0180 47° Northeast 515 593 35,000 182 Level FlightAware ADS-B (YPLB)
Wed 05:58:00 AM -31.4706 155.0859 47° Northeast 516 594 35,200 174 Climbing Aus ATC (RADAR)
Wed 05:58:34 AM -31.4167 155.1538 47° Northeast 498 573 35,200 -75 Level Aus ATC (RADAR)
Wed 05:59:20 AM -31.3414 155.2494 47° Northeast 514 592 35,100  Descending Aus ATC (RADAR)
Wed 05:59:55 AM -31.2848 155.3210 47° Northeast 514 592 35,200 60 Climbing Aus ATC (RADAR)
Wed 06:01:00 AM -31.1797 155.4533 47° Northeast 512 589 35,200 -63 Level Aus ATC (RADAR)
Wed 06:01:30 AM -31.1316 155.5133 47° Northeast 508 585 35,100  Descending Aus ATC (RADAR)
Wed 06:02:05 AM -31.0755 155.5834 47° Northeast 507 583 35,200 88 Climbing Aus ATC (RADAR)
Wed 06:02:38 AM -31.0232 155.6482 47° Northeast 487 560 35,200  Level Aus ATC (RADAR)
Wed 06:03:15 AM -30.9644 155.7226 47° Northeast 503 579 35,200  Level Aus ATC (RADAR)
Wed 06:03:48 AM -30.9119 155.7879 47° Northeast 486 559 35,200 -82 Level Aus ATC (RADAR)
Wed 06:04:28 AM -30.8492 155.8663 47° Northeast 480 552 35,100 -79 Descending Aus ATC (RADAR)
Wed 06:05:04 AM -30.7911 155.9393 47° Northeast 498 573 35,100  Level Aus ATC (RADAR)
Wed 06:06:04 AM -30.7006 156.0612 49° Northeast 497 572 35,100 71 Level Aus ATC (RADAR)
Wed 06:06:29 AM -30.6629 156.1116 49° Northeast 497 572 35,200 100 Climbing Aus ATC (RADAR)
Wed 06:07:04 AM -30.6098 156.1818 49° Northeast 495 570 35,200  Level Aus ATC (RADAR)
Wed 06:08:14 AM -30.5021 156.3230 49° Northeast 500 575 35,200  Level Aus ATC (RADAR)
Wed 06:08:49 AM -30.4482 156.3941 49° Northeast 502 578 35,200 -86 Level Aus ATC (RADAR)
Wed 06:09:24 AM -30.3942 156.4649 49° Northeast 502 578 35,100 -86 Descending Aus ATC (RADAR)
Wed 06:09:59 AM -30.3401 156.5353 48° Northeast 501 577 35,100  Level Aus ATC (RADAR)
Wed 06:11:09 AM -30.2322 156.6765 49° Northeast 500 575 35,100 -67 Level Aus ATC (RADAR)
Wed 06:11:29 AM -30.2011 156.7168 48° Northeast 501 577 35,000 -109 Descending Aus ATC (RADAR)
Wed 06:12:04 AM -30.1470 156.7868 48° Northeast 500 575 35,000  Level Aus ATC (RADAR)
Wed 06:12:54 AM -30.0697 156.8865 48° Northeast 500 575 35,000 71 Level Aus ATC (RADAR)
Wed 06:13:29 AM -30.0162 156.9562 48° Northeast 497 572 35,100 63 Climbing Aus ATC (RADAR)
Wed 06:14:29 AM -29.9242 157.0754 48° Northeast 496 571 35,100  Level Aus ATC (RADAR)
Wed 06:14:44 AM -29.9014 157.1050 48° Northeast 495 570 35,100  Level Aus ATC (RADAR)
Wed 06:15:14 AM -29.8552 157.1648 48° Northeast 497 572 35,100 -60 Level Aus ATC (RADAR)
Wed 06:16:24 AM -29.7471 157.3036 48° Northeast 497 572 35,000 -67 Descending Aus ATC (RADAR)
Wed 06:16:43 AM -29.7160 157.3438 48° Northeast 497 572 35,000  Level Aus ATC (RADAR)
Wed 06:17:23 AM -29.6537 157.4239 48° Northeast 500 575 35,000 75 Level Aus ATC (RADAR)
Wed 06:18:03 AM -29.5915 157.5029 48° Northeast 498 573 35,100 75 Climbing Aus ATC (RADAR)
Wed 06:18:43 AM -29.5281 157.5826 48° Northeast 502 578 35,100 -67 Level Aus ATC (RADAR)
Wed 06:19:33 AM -29.4498 157.6822 48° Northeast 501 577 35,000  Descending Aus ATC (RADAR)
Wed 06:20:13 AM -29.3870 157.7623 48° Northeast 503 579 35,100 57 Climbing Aus ATC (RADAR)
Wed 06:21:18 AM -29.2886 157.8906 49° Northeast 493 567 35,100 -67 Level Aus ATC (RADAR)
Wed 06:21:43 AM -29.2500 157.9401 48° Northeast 494 568 35,000 -92 Descending Aus ATC (RADAR)
Wed 06:22:23 AM -29.1864 158.0197 48° Northeast 499 574 35,000  Level Aus ATC (RADAR)
Wed 06:23:13 AM -29.1057 158.1192 47° Northeast 503 579 35,000 71 Level Aus ATC (RADAR)
Wed 06:23:48 AM -29.0499 158.1873 47° Northeast 503 579 35,100 171 Climbing Aus ATC (RADAR)
Wed 06:26:24 AM -28.8020 158.4965 47° Northeast 37,000 731 Climbing Aus ATC (Calculated)
Wed 06:28:00 AM -28.6660 158.6653 47° Northeast  Level FlightAware Approximate
Wed 06:28:48 AM -28.5628 158.7928 227° Southwest 37,000  Level Aus ATC (Calculated)
Wed 06:29:00 AM -28.5808 158.7705 47° Northeast  Level FlightAware Approximate
Wed 06:30:00 AM -28.4605 158.9189 47° Northeast  Level FlightAware Approximate
Wed 06:31:00 AM -28.3752 159.0237 47° Northeast  Level FlightAware Approximate
Wed 06:32:00 AM -28.2897 159.1284 47° Northeast  Level FlightAware Approximate
Wed 06:32:12 AM -28.2324 159.1987 47° Northeast 37,000  Level Aus ATC (Calculated)
Wed 06:34:00 AM -28.1540 159.2942 47° Northeast  Level FlightAware Approximate
Wed 06:35:00 AM -28.0684 159.3985 47° Northeast  Level FlightAware Approximate
Wed 06:36:00 AM -27.9827 159.5026 47° Northeast  Level FlightAware Approximate
Wed 06:37:00 AM -27.8970 159.6065 47° Northeast  Level FlightAware Approximate
Wed 06:37:12 AM -27.7814 159.7464 47° Northeast 37,000  Level Aus ATC (Calculated)
Wed 06:39:00 AM -27.6267 159.9327 47° Northeast  Level FlightAware Approximate
Wed 06:39:13 AM -27.5653 160.0064 47° Northeast 37,000  Level Aus ATC (Calculated)
Wed 06:40:32 AM -27.4455 160.1497 47° Northeast 37,000  Level Aus ATC (Calculated)
Wed 06:42:00 AM -27.3190 160.3006 47° Northeast  Level FlightAware Approximate
Wed 06:43:00 AM -27.2327 160.4033 47° Northeast  Level FlightAware Approximate
Wed 06:43:32 AM -27.1405 160.5126 47° Northeast 37,000  Level Aus ATC (Calculated)
Wed 06:44:17 AM -27.0737 160.5918 46° Northeast 37,000  Level Aus ATC (Calculated)
Wed 06:46:00 AM -26.9251 160.7672 46° Northeast  Level FlightAware Approximate
Wed 06:46:17 AM -26.8791 160.8212 46° Northeast 37,000  Level Aus ATC (Calculated)
Wed 06:48:00 AM -26.7302 160.9960 46° Northeast  Level FlightAware Approximate
Wed 06:48:17 AM -26.7025 161.0284 46° Northeast 37,000  Level Aus ATC (Calculated)
Wed 06:49:00 AM -26.6491 161.0909 46° Northeast 37,000  Level Aus ATC (Calculated)
Wed 06:50:00 AM -26.5622 161.1924 46° Northeast  Level FlightAware Approximate
Wed 06:51:00 AM -26.4752 161.2937 46° Northeast  Level FlightAware Approximate
Wed 06:51:00 AM -26.4419 161.3325 46° Northeast 37,000  Level Aus ATC (Calculated)
Wed 06:52:00 AM -26.3548 161.4336 46° Northeast  Level FlightAware Approximate
Wed 06:53:00 AM -26.2676 161.5345 46° Northeast  Level FlightAware Approximate
Wed 06:54:00 AM -26.1804 161.6353 46° Northeast  Level FlightAware Approximate
Wed 06:55:00 AM -26.0931 161.7360 46° Northeast  Level FlightAware Approximate
Wed 06:56:00 AM -26.0058 161.8365 46° Northeast  Level FlightAware Approximate
Wed 06:57:00 AM -25.9184 161.9368 46° Northeast  Level FlightAware Approximate
Wed 06:58:00 AM -25.8309 162.0370 46° Northeast  Level FlightAware Approximate
Wed 06:59:00 AM -25.7433 162.1371 46° Northeast  Level FlightAware Approximate
Wed 07:00:00 AM -25.6557 162.2370 46° Northeast  Level FlightAware Approximate
Wed 07:01:00 AM -25.5680 162.3367 46° Northeast  Level FlightAware Approximate
Wed 07:01:00 AM -25.4846 162.4314 46° Northeast 37,000  Level Aus ATC (Calculated)
Wed 07:02:00 AM -25.4802 162.4363 46° Northeast  Level FlightAware Approximate
Wed 07:03:00 AM -25.3089 162.6301 46° Northeast  Level FlightAware Approximate
Wed 07:04:00 AM -25.2209 162.7293 46° Northeast  Level FlightAware Approximate
Wed 07:05:00 AM -25.1329 162.8284 46° Northeast  Level FlightAware Approximate
Wed 07:06:00 AM -25.0448 162.9272 45° Northeast  Level FlightAware Approximate
Wed 07:07:00 AM -24.9566 163.0260 45° Northeast  Level FlightAware Approximate
Wed 07:08:00 AM -25.0448 162.9272 225° Southwest  Level FlightAware Approximate
Wed 07:09:00 AM -24.9423 163.0075 45° Northeast  Level Estimated
Wed 07:10:00 AM -24.8550 163.1070 46° Northeast  Level FlightAware Approximate
Wed 07:11:00 AM -24.7675 163.2064 46° Northeast  Level FlightAware Approximate
Wed 07:12:00 AM -24.6800 163.3056 46° Northeast  Level FlightAware Approximate
Wed 07:13:00 AM -24.5925 163.4047 46° Northeast  Level FlightAware Approximate
Wed 07:14:00 AM -24.5048 163.5037 46° Northeast  Level FlightAware Approximate
Wed 07:15:00 AM -24.4171 163.6025 46° Northeast  Level FlightAware Approximate
Wed 07:16:00 AM -24.3294 163.7012 46° Northeast  Level FlightAware Approximate
Wed 07:17:00 AM -24.2416 163.7997 46° Northeast  Level FlightAware Approximate
Wed 07:18:00 AM -24.1537 163.8981 46° Northeast  Level FlightAware Approximate
Wed 07:19:00 AM -24.0657 163.9964 46° Northeast  Level FlightAware Approximate
Wed 07:20:00 AM -23.9777 164.0946 46° Northeast  Level FlightAware Approximate
Wed 07:21:00 AM -23.8896 164.1926 46° Northeast  Level FlightAware Approximate
Wed 07:22:00 AM -23.8015 164.2905 45° Northeast  Level FlightAware Approximate
Wed 07:23:00 AM -23.7133 164.3882 45° Northeast  Level FlightAware Approximate
Wed 07:24:00 AM -23.6250 164.4858 45° Northeast  Level FlightAware Approximate
Wed 07:25:00 AM -23.5367 164.5833 45° Northeast  Level FlightAware Approximate
Wed 07:26:00 AM -23.4297 164.6550 45° Northeast  Level Estimated
Wed 07:27:00 AM -23.3417 164.7527 46° Northeast  Level FlightAware Approximate
Wed 07:28:00 AM -23.2536 164.8502 45° Northeast  Level FlightAware Approximate
Wed 07:29:00 AM -23.1654 164.9476 45° Northeast  Level FlightAware Approximate
Wed 07:30:00 AM -23.0772 165.0448 45° Northeast  Level FlightAware Approximate
Wed 07:31:00 AM -22.9889 165.1420 45° Northeast  Level FlightAware Approximate
Wed 07:32:00 AM -22.9006 165.2390 45° Northeast  Level FlightAware Approximate
Wed 07:33:00 AM -22.8122 165.3358 45° Northeast  Level FlightAware Approximate
Wed 07:34:00 AM -22.7238 165.4326 45° Northeast  Level FlightAware Approximate
Wed 07:35:00 AM -22.6353 165.5292 45° Northeast  Level FlightAware Approximate
Wed 07:36:00 AM -22.5467 165.6257 45° Northeast  Level FlightAware Approximate
Wed 07:37:00 AM -22.4581 165.7221 45° Northeast  Level FlightAware Approximate
Wed 07:38:00 AM -22.3694 165.8183 45° Northeast  Level FlightAware Approximate
Wed 07:39:00 AM -22.2806 165.9145 45° Northeast  Level FlightAware Approximate
Wed 07:40:00 AM -22.1918 166.0105 45° Northeast  Level FlightAware Approximate
Wed 07:41:00 AM -22.1030 166.1064 45° Northeast  Level FlightAware Approximate
Wed 07:42:00 AM -21.9898 166.1651 24° Northeast  Level Estimated
Wed 07:43:00 AM -21.8759 166.2223 25° Northeast  Level FlightAware Approximate
Wed 07:44:00 AM -21.7620 166.2793 25° Northeast  Level FlightAware Approximate
Wed 07:45:00 AM -21.6481 166.3363 25° Northeast  Level FlightAware Approximate
Wed 07:46:00 AM -21.5341 166.3933 25° Northeast  Level FlightAware Approximate
Wed 07:47:00 AM -21.4202 166.4501 25° Northeast  Level FlightAware Approximate
Wed 07:48:00 AM -21.3062 166.5068 25° Northeast  Level FlightAware Approximate
Wed 07:49:00 AM -21.1922 166.5634 25° Northeast  Level FlightAware Approximate
Wed 07:50:00 AM -21.0782 166.6200 25° Northeast  Level FlightAware Approximate
Wed 07:51:00 AM -20.9641 166.6765 25° Northeast  Level FlightAware Approximate
Wed 07:52:00 AM -20.8501 166.7329 25° Northeast  Level FlightAware Approximate
Wed 07:53:00 AM -20.7360 166.7892 25° Northeast  Level FlightAware Approximate
Wed 07:54:00 AM -20.6219 166.8454 25° Northeast  Level FlightAware Approximate
Wed 07:55:00 AM -20.5078 166.9015 25° Northeast  Level FlightAware Approximate
Wed 07:56:00 AM -20.3937 166.9576 25° Northeast  Level FlightAware Approximate
Wed 07:57:00 AM -20.2796 167.0135 25° Northeast  Level FlightAware Approximate
Wed 07:58:00 AM -20.1654 167.0694 25° Northeast  Level FlightAware Approximate
Wed 07:59:00 AM -20.0512 167.1252 25° Northeast  Level FlightAware Approximate
Wed 08:00:00 AM -19.9370 167.1809 25° Northeast  Level FlightAware Approximate
Wed 08:01:00 AM -19.8228 167.2366 25° Northeast  Level FlightAware Approximate
Wed 08:02:00 AM -19.7086 167.2921 25° Northeast  Level FlightAware Approximate
Wed 08:03:00 AM -19.5943 167.3476 25° Northeast  Level FlightAware Approximate
Wed 08:04:00 AM -19.4815 167.4062 24° Northeast  Level Estimated
Wed 08:05:00 AM -19.3663 167.4594 24° Northeast  Level FlightAware Approximate
Wed 08:06:00 AM -19.2512 167.5125 24° Northeast  Level FlightAware Approximate
Wed 08:07:00 AM -19.1360 167.5656 24° Northeast  Level FlightAware Approximate
Wed 08:08:00 AM -19.0208 167.6186 24° Northeast  Level FlightAware Approximate
Wed 08:09:00 AM -18.9055 167.6716 23° Northeast  Level FlightAware Approximate
Wed 08:10:00 AM -18.7903 167.7244 23° Northeast  Level FlightAware Approximate
Wed 08:11:00 AM -18.6751 167.7772 23° Northeast  Level FlightAware Approximate
Wed 08:12:00 AM -18.5641 167.8393 24° Northeast  Level Estimated
Wed 08:13:00 AM -18.4485 167.8914 23° Northeast  Level FlightAware Approximate
Wed 08:14:00 AM -18.3330 167.9434 23° Northeast  Level FlightAware Approximate
Wed 08:15:00 AM -18.2175 167.9953 23° Northeast  Level FlightAware Approximate
Wed 08:16:00 AM -18.1019 168.0472 23° Northeast  Level FlightAware Approximate
Wed 08:17:00 AM -17.9863 168.0990 23° Northeast  Level FlightAware Approximate
Wed 08:18:00 AM -17.8708 168.1507 23° Northeast  Level FlightAware Approximate
Wed 08:19:00 AM -17.7552 168.2024 23° Northeast  Level FlightAware Approximate
Wed 08:20:00 AM -17.6993 168.3198 63° Northeast  Level Estimated
Wed 08:21:00 AM -17.6993 168.3198 24° Northeast  Level Estimated
Wed 08:22:00 AM -17.6993 168.3198 North  Level Estimated
Wed 08:23:00 AM -17.6993 168.3198 24° Northeast  Level Estimated
Wed 08:24:00 AM -17.6993 168.3198 North  Level Estimated
Wed 08:25:00 AM -17.6993 168.3198 24° Northeast  Level Estimated
Wed 08:26:00 AM -17.6993 168.3198 North  Level Estimated
Wed 08:27:00 AM -17.6993 168.3198 24° Northeast  Level Estimated
Wed 08:28:00 AM -17.6993 168.3198 North  Level Estimated
Wed 08:29:00 AM -17.6993 168.3198 24° Northeast  Level Estimated
Wed 08:30:00 AM -17.6993 168.3198 North  Level Estimated
Wed 08:31:00 AM -17.6993 168.3198 24° Northeast  Level Estimated
Wed 08:32:00 AM -17.6993 168.3198 North  Level Estimated
Wed 08:33:00 AM -17.6993 168.3198 24° Northeast  Level Estimated
Wed 08:34:00 AM -17.6993 168.3198 North  Level Estimated

Login

Don't have an account? Register now (free) for customized features, flight alerts, and more!